Time;durP1;ratioP1;P1;durP2;ratioP2;P2;SDS_P1;SDS_P2;PMS_P1;PMS_P2;Temp;Humidity;BMP_temperature;BMP_pressure;BME280_temperature;BME280_humidity;BME280_pressure;Samples;Min_cycle;Max_cycle;Signal;HPM_P1;HPM_P2
2023/05/22 00:01:41;;;;;;;757.30;678.40;;;16.20;99.90;;;;;;5072819;28;20548;-64
2023/05/22 00:04:08;;;;;;;768.20;688.03;;;16.20;99.90;;;;;;5072694;28;20456;-64
2023/05/22 00:06:35;;;;;;;773.15;694.05;;;16.10;99.90;;;;;;5073034;28;20835;-64
2023/05/22 00:09:04;;;;;;;766.23;688.73;;;16.10;99.90;;;;;;5073001;28;20608;-64
2023/05/22 00:11:33;;;;;;;756.97;678.97;;;16.10;99.90;;;;;;5072529;28;20461;-64
2023/05/22 00:14:00;;;;;;;759.10;679.95;;;16.20;99.90;;;;;;5072724;28;20450;-64
2023/05/22 00:16:27;;;;;;;759.60;681.37;;;16.10;99.90;;;;;;5072521;28;20676;-64
2023/05/22 00:18:56;;;;;;;754.07;675.40;;;16.10;99.90;;;;;;5072437;28;20460;-64
2023/05/22 00:21:23;;;;;;;770.40;691.70;;;16.10;99.90;;;;;;5072686;28;20453;-64
2023/05/22 00:23:50;;;;;;;763.53;685.13;;;16.10;99.90;;;;;;5072802;28;20453;-64
2023/05/22 00:26:18;;;;;;;750.97;675.27;;;16.00;99.90;;;;;;5072355;28;20445;-64
2023/05/22 00:28:45;;;;;;;755.80;680.10;;;15.90;99.90;;;;;;5072375;28;20455;-64
2023/05/22 00:31:12;;;;;;;775.17;698.60;;;15.80;99.90;;;;;;5072452;28;20464;-64
2023/05/22 00:33:39;;;;;;;764.10;688.47;;;15.80;99.90;;;;;;5071596;28;20467;-64
2023/05/22 00:36:06;;;;;;;743.53;664.70;;;15.80;99.90;;;;;;5072254;28;20541;-64
2023/05/22 00:38:35;;;;;;;733.80;657.23;;;16.00;99.90;;;;;;5071135;28;20459;-64
2023/05/22 00:41:04;;;;;;;742.13;667.73;;;16.00;99.90;;;;;;5072165;28;20459;-64
2023/05/22 00:43:33;;;;;;;736.50;663.80;;;16.00;99.90;;;;;;5072149;28;21003;-64
2023/05/22 00:46:00;;;;;;;752.73;680.93;;;15.90;99.90;;;;;;5072259;28;20444;-64
2023/05/22 00:48:27;;;;;;;753.20;681.67;;;15.80;99.90;;;;;;5071507;28;20447;-64
2023/05/22 00:50:56;;;;;;;750.47;679.27;;;15.90;99.90;;;;;;5072164;28;20460;-64
2023/05/22 00:53:24;;;;;;;742.87;667.97;;;15.80;99.90;;;;;;5072258;28;20452;-64
2023/05/22 00:55:52;;;;;;;744.57;670.73;;;15.80;99.90;;;;;;5072007;28;20486;-64
2023/05/22 00:58:20;;;;;;;730.57;658.50;;;15.80;99.90;;;;;;5071993;28;20454;-64
2023/05/22 01:00:48;;;;;;;749.43;676.53;;;15.70;99.90;;;;;;5071839;28;20455;-65
2023/05/22 01:03:16;;;;;;;750.87;676.00;;;15.70;99.90;;;;;;5072171;28;20823;-64
2023/05/22 01:05:44;;;;;;;751.40;675.37;;;15.60;99.90;;;;;;5072142;28;20450;-64
2023/05/22 01:08:11;;;;;;;740.00;662.23;;;15.50;99.90;;;;;;5071758;28;20457;-64
2023/05/22 01:10:39;;;;;;;759.53;681.53;;;15.50;99.90;;;;;;5071700;28;20446;-64
2023/05/22 01:13:18;;;;;;;742.63;664.17;;;15.50;99.90;;;;;;5071947;28;20454;-64
2023/05/22 01:15:56;;;;;;;718.53;640.50;;;15.50;99.90;;;;;;5072118;28;20480;-64
2023/05/22 01:18:30;;;;;;;733.40;653.70;;;15.60;99.90;;;;;;5071716;28;20450;-64
2023/05/22 01:21:03;;;;;;;737.10;656.77;;;15.40;99.90;;;;;;5051723;28;20452;-64
2023/05/22 01:24:10;;;;;;;747.40;666.70;;;15.60;99.90;;;;;;5051695;28;20456;-64
2023/05/22 01:27:03;;;;;;;735.93;656.73;;;15.50;99.90;;;;;;5051928;28;20535;-64
2023/05/22 01:29:54;;;;;;;737.20;658.87;;;15.50;99.90;;;;;;5060755;28;20501;-64
2023/05/22 01:32:25;;;;;;;763.73;683.13;;;15.40;99.90;;;;;;5071395;28;20821;-65
2023/05/22 01:34:55;;;;;;;749.33;667.57;;;15.50;99.90;;;;;;5072130;28;20448;-64
2023/05/22 01:37:23;;;;;;;747.40;666.50;;;15.40;99.90;;;;;;5071336;28;20485;-64
2023/05/22 01:39:51;;;;;;;733.57;652.07;;;15.40;99.90;;;;;;5071088;28;20972;-64
2023/05/22 01:42:19;;;;;;;727.67;645.13;;;15.50;99.90;;;;;;5071694;28;20792;-64
2023/05/22 01:44:45;;;;;;;728.23;647.30;;;15.50;99.90;;;;;;5073680;28;20450;-64
2023/05/22 01:47:13;;;;;;;750.42;650.75;;;15.50;99.90;;;;;;5075663;28;20454;-64
2023/05/22 01:49:42;;;;;;;729.20;634.13;;;15.50;99.90;;;;;;5075172;28;20458;-64
2023/05/22 01:52:17;;;;;;;738.22;656.83;;;15.50;99.90;;;;;;5075322;28;20450;-64
2023/05/22 01:54:52;;;;;;;717.80;638.80;;;15.50;99.90;;;;;;5075241;28;20201;-64
2023/05/22 01:57:25;;;;;;;726.83;646.73;;;15.50;99.90;;;;;;5075619;28;20479;-64
2023/05/22 01:59:57;;;;;;;720.93;641.97;;;15.40;99.90;;;;;;5074946;28;20456;-65
2023/05/22 02:02:25;;;;;;;727.93;649.13;;;15.40;99.90;;;;;;5075230;28;20942;-64
2023/05/22 02:05:00;;;;;;;722.03;642.77;;;15.30;99.90;;;;;;5075093;28;20473;-65
2023/05/22 02:07:28;;;;;;;721.80;643.50;;;15.30;99.90;;;;;;5075083;28;20449;-64
2023/05/22 02:09:56;;;;;;;720.73;642.67;;;15.20;99.90;;;;;;5074912;28;20454;-64
2023/05/22 02:12:26;;;;;;;748.30;670.20;;;15.20;99.90;;;;;;5074952;28;20452;-64
2023/05/22 02:14:53;;;;;;;735.07;656.27;;;15.10;99.90;;;;;;5075013;28;20450;-64
2023/05/22 02:17:20;;;;;;;743.83;664.63;;;15.10;99.90;;;;;;5074755;28;20474;-64
2023/05/22 02:19:47;;;;;;;733.15;655.15;;;15.20;99.90;;;;;;5074575;28;20188;-64
2023/05/22 02:22:15;;;;;;;760.57;682.97;;;15.20;99.90;;;;;;5075135;28;20193;-65
2023/05/22 02:24:48;;;;;;;748.07;670.17;;;15.20;99.90;;;;;;5074520;28;20457;-64
2023/05/22 02:27:15;;;;;;;739.07;660.60;;;15.10;99.90;;;;;;5066623;28;20443;-64
2023/05/22 02:29:42;;;;;;;733.77;654.40;;;15.00;99.90;;;;;;5074420;28;20448;-64
2023/05/22 02:32:09;;;;;;;739.05;660.00;;;15.00;99.90;;;;;;5074611;28;20741;-65
2023/05/22 02:34:36;;;;;;;736.07;659.10;;;14.90;99.90;;;;;;5074568;28;20466;-64
2023/05/22 02:37:03;;;;;;;744.13;666.73;;;15.00;99.90;;;;;;5074542;28;20568;-64
2023/05/22 02:39:31;;;;;;;739.22;662.83;;;14.90;99.90;;;;;;5073954;28;20451;-66
2023/05/22 02:41:58;;;;;;;730.50;655.60;;;15.00;99.90;;;;;;5074215;28;20189;-66
2023/05/22 02:44:25;;;;;;;736.90;662.70;;;14.90;99.90;;;;;;5074418;28;20450;-66
2023/05/22 02:46:52;;;;;;;744.83;672.15;;;14.80;99.90;;;;;;5073794;28;20808;-66
2023/05/22 02:49:18;;;;;;;725.73;653.27;;;14.70;99.90;;;;;;5074142;28;20188;-67
2023/05/22 02:51:46;;;;;;;752.00;678.50;;;14.70;99.90;;;;;;5072850;28;20478;-67
2023/05/22 02:54:15;;;;;;;739.60;665.43;;;14.80;99.90;;;;;;5066535;28;20451;-66
2023/05/22 02:56:43;;;;;;;742.80;667.80;;;14.70;99.90;;;;;;5073346;28;20578;-66
2023/05/22 02:59:10;;;;;;;728.50;653.00;;;14.70;99.90;;;;;;5075544;28;20454;-66
2023/05/22 03:01:38;;;;;;;728.07;652.67;;;14.60;99.90;;;;;;5073939;28;20454;-66
2023/05/22 03:04:05;;;;;;;735.53;659.63;;;14.70;99.90;;;;;;5073861;28;20461;-66
2023/05/22 03:06:33;;;;;;;727.83;652.47;;;14.60;99.90;;;;;;5074018;28;20446;-66
2023/05/22 03:09:02;;;;;;;720.80;645.57;;;14.70;99.90;;;;;;5073970;28;20450;-66
2023/05/22 03:11:29;;;;;;;731.57;656.90;;;14.60;99.90;;;;;;5073634;28;20453;-66
2023/05/22 03:13:57;;;;;;;745.73;671.43;;;14.60;99.90;;;;;;5073262;28;20458;-66
2023/05/22 03:16:24;;;;;;;730.60;657.10;;;14.50;99.90;;;;;;5073609;28;20506;-65
2023/05/22 03:18:53;;;;;;;730.30;656.27;;;14.50;99.90;;;;;;5072665;28;20524;-65
2023/05/22 03:21:19;;;;;;;745.97;669.77;;;14.50;99.90;;;;;;5070383;28;20841;-65
2023/05/22 03:23:48;;;;;;;762.40;685.23;;;14.50;99.90;;;;;;5085778;28;20451;-65
2023/05/22 03:26:14;;;;;;;758.30;682.40;;;14.40;99.90;;;;;;5073510;28;20455;-65
2023/05/22 03:28:41;;;;;;;750.20;674.60;;;14.40;99.90;;;;;;5061970;28;20197;-65
2023/05/22 03:31:09;;;;;;;757.30;681.30;;;14.40;99.90;;;;;;5071446;28;20457;-65
2023/05/22 03:33:36;;;;;;;762.80;685.63;;;14.40;99.90;;;;;;5073107;28;20461;-65
2023/05/22 03:36:03;;;;;;;750.43;672.33;;;14.40;99.90;;;;;;5073174;28;20446;-65
2023/05/22 03:38:30;;;;;;;740.07;662.70;;;14.40;99.90;;;;;;5060351;28;20931;-65
2023/05/22 03:40:57;;;;;;;723.67;647.13;;;14.50;99.90;;;;;;5053259;28;20451;-65
2023/05/22 03:43:23;;;;;;;726.30;648.33;;;14.70;99.90;;;;;;5054906;28;20969;-65
2023/05/22 03:45:50;;;;;;;708.07;630.77;;;14.70;99.90;;;;;;5073155;28;20456;-66
2023/05/22 03:48:20;;;;;;;729.60;652.37;;;14.80;99.90;;;;;;5073048;28;20448;-65
2023/05/22 03:50:47;;;;;;;731.53;653.83;;;14.90;99.90;;;;;;5072575;28;20447;-65
2023/05/22 03:53:14;;;;;;;727.40;651.07;;;15.00;99.90;;;;;;5072329;28;20444;-65
2023/05/22 03:55:40;;;;;;;740.15;663.83;;;15.00;99.90;;;;;;5071937;28;20447;-65
2023/05/22 03:58:07;;;;;;;735.10;660.03;;;15.00;99.90;;;;;;5072878;28;20219;-65
2023/05/22 04:00:34;;;;;;;735.50;658.60;;;15.00;99.90;;;;;;5072581;28;20823;-66
2023/05/22 04:03:01;;;;;;;729.50;654.60;;;15.10;99.90;;;;;;5072543;28;20457;-66
2023/05/22 04:05:30;;;;;;;757.28;682.92;;;15.20;99.90;;;;;;5072814;28;20447;-66
2023/05/22 04:07:57;;;;;;;729.50;657.30;;;15.10;99.90;;;;;;5071538;28;20612;-65
2023/05/22 04:10:24;;;;;;;733.33;662.35;;;15.20;99.90;;;;;;5072669;28;20443;-66
2023/05/22 04:12:51;;;;;;;737.97;667.95;;;15.20;99.90;;;;;;5072441;28;20195;-66
2023/05/22 04:15:17;;;;;;;738.13;668.00;;;15.20;99.90;;;;;;5071526;28;20217;-66
2023/05/22 04:17:46;;;;;;;748.17;676.13;;;15.20;99.90;;;;;;5072317;28;20479;-66
2023/05/22 04:20:13;;;;;;;742.17;669.10;;;15.30;99.90;;;;;;5072396;28;20456;-66
2023/05/22 04:22:41;;;;;;;743.97;671.37;;;15.30;99.90;;;;;;5071999;28;20458;-66
2023/05/22 04:25:08;;;;;;;748.60;676.07;;;15.30;99.90;;;;;;5072440;28;20447;-66
2023/05/22 04:27:36;;;;;;;734.60;663.10;;;15.30;99.90;;;;;;5072298;28;20451;-66
2023/05/22 04:30:04;;;;;;;742.37;670.47;;;15.30;99.90;;;;;;5072110;28;20200;-66
2023/05/22 04:32:31;;;;;;;743.80;671.47;;;15.30;99.90;;;;;;5071826;28;20455;-66
2023/05/22 04:34:59;;;;;;;741.33;669.37;;;15.30;99.90;;;;;;5072310;28;20482;-66
2023/05/22 04:37:27;;;;;;;737.10;665.20;;;15.30;99.90;;;;;;5071822;28;20514;-66
2023/05/22 04:39:57;;;;;;;749.03;677.13;;;15.40;99.90;;;;;;5072159;28;20451;-66
2023/05/22 04:42:24;;;;;;;737.23;666.13;;;15.30;99.90;;;;;;5071553;28;20449;-64
2023/05/22 04:44:51;;;;;;;743.77;671.87;;;15.30;99.90;;;;;;5072302;28;20923;-64
2023/05/22 04:47:18;;;;;;;755.17;682.77;;;15.40;99.90;;;;;;5072076;28;20447;-64
2023/05/22 04:49:45;;;;;;;757.50;684.27;;;15.30;99.90;;;;;;5072048;28;20459;-64
2023/05/22 04:52:12;;;;;;;751.72;680.00;;;15.40;99.90;;;;;;5071702;28;20457;-64
2023/05/22 04:54:40;;;;;;;743.17;672.63;;;15.40;99.90;;;;;;5072094;28;20459;-64
2023/05/22 04:57:08;;;;;;;734.20;663.30;;;15.50;99.90;;;;;;5071873;28;20473;-64
2023/05/22 04:59:37;;;;;;;729.70;658.60;;;15.40;99.90;;;;;;5071908;28;20454;-64
2023/05/22 05:02:05;;;;;;;732.83;661.77;;;15.40;99.90;;;;;;5071739;28;20457;-64
2023/05/22 05:04:31;;;;;;;740.20;669.40;;;15.50;99.90;;;;;;5071556;28;20461;-64
2023/05/22 05:06:58;;;;;;;731.23;660.63;;;15.50;99.90;;;;;;5071951;28;20827;-65
2023/05/22 05:09:25;;;;;;;730.73;660.43;;;15.50;99.90;;;;;;5071936;28;20458;-66
2023/05/22 05:11:52;;;;;;;735.23;665.70;;;15.50;99.90;;;;;;5071331;28;20447;-66
2023/05/22 05:14:21;;;;;;;751.00;681.00;;;15.60;99.90;;;;;;5071657;28;20458;-66
2023/05/22 05:16:47;;;;;;;748.37;678.63;;;15.60;99.90;;;;;;5071002;28;20475;-66
2023/05/22 05:19:15;;;;;;;752.47;682.07;;;15.50;99.90;;;;;;5070961;28;20453;-66
2023/05/22 05:21:42;;;;;;;744.97;674.87;;;15.50;99.90;;;;;;5075906;28;20498;-66
2023/05/22 05:24:08;;;;;;;741.83;670.80;;;15.40;99.90;;;;;;5075885;28;20547;-66
2023/05/22 05:26:35;;;;;;;744.27;674.70;;;15.40;99.90;;;;;;5061997;28;20457;-64
2023/05/22 05:29:02;;;;;;;747.07;677.40;;;15.50;99.90;;;;;;5075170;28;20452;-64
2023/05/22 05:31:31;;;;;;;758.33;688.10;;;15.60;99.90;;;;;;5074710;28;20455;-64
2023/05/22 05:33:58;;;;;;;773.83;703.83;;;15.60;99.90;;;;;;5074863;28;20497;-64
2023/05/22 05:36:25;;;;;;;775.65;707.53;;;15.60;99.90;;;;;;5074254;28;20565;-64
2023/05/22 05:38:53;;;;;;;790.10;721.83;;;15.80;99.90;;;;;;5073579;28;20623;-64
2023/05/22 05:41:20;;;;;;;791.27;724.23;;;15.80;99.90;;;;;;5073620;28;20503;-63
2023/05/22 05:43:47;;;;;;;801.93;734.77;;;15.80;99.90;;;;;;5073830;28;20858;-64
2023/05/22 05:46:14;;;;;;;800.03;733.90;;;15.80;99.90;;;;;;5074783;28;20452;-64
2023/05/22 05:48:42;;;;;;;806.53;739.53;;;16.00;99.90;;;;;;5073222;28;20454;-64
2023/05/22 05:51:09;;;;;;;800.57;734.07;;;16.10;99.90;;;;;;5073959;28;20498;-64
2023/05/22 05:53:36;;;;;;;801.00;735.93;;;16.20;99.90;;;;;;5075088;28;20450;-64
2023/05/22 05:56:03;;;;;;;803.43;740.93;;;16.20;99.90;;;;;;5074595;28;20455;-64
2023/05/22 05:58:30;;;;;;;795.03;736.93;;;16.30;99.90;;;;;;5074798;28;20475;-64
2023/05/22 06:00:57;;;;;;;798.67;740.07;;;16.20;99.90;;;;;;5078611;28;20450;-64
2023/05/22 06:03:24;;;;;;;806.73;746.53;;;16.30;99.90;;;;;;5073552;28;20448;-64
2023/05/22 06:05:53;;;;;;;799.90;741.53;;;16.30;99.90;;;;;;5074232;28;20458;-64
2023/05/22 06:08:20;;;;;;;786.10;728.73;;;16.40;99.90;;;;;;5074258;28;20452;-65
2023/05/22 06:10:47;;;;;;;773.72;722.63;;;16.80;99.90;;;;;;5074841;28;20461;-65
2023/05/22 06:13:14;;;;;;;717.73;675.37;;;17.00;99.90;;;;;;5073425;28;20624;-65
2023/05/22 06:15:41;;;;;;;696.17;657.67;;;17.10;99.90;;;;;;5072422;28;20449;-67
2023/05/22 06:18:08;;;;;;;675.00;639.07;;;17.20;99.90;;;;;;5074043;28;20477;-68
2023/05/22 06:20:35;;;;;;;536.27;511.13;;;17.50;99.90;;;;;;5072928;28;20454;-64
2023/05/22 06:23:03;;;;;;;333.13;319.30;;;17.70;99.90;;;;;;5073705;28;20448;-65
2023/05/22 06:25:30;;;;;;;133.47;123.57;;;17.70;99.90;;;;;;5073359;28;20977;-63
2023/05/22 06:27:57;;;;;;;278.13;265.23;;;17.40;99.90;;;;;;5074356;28;20461;-64
2023/05/22 06:30:23;;;;;;;290.83;278.13;;;17.30;99.90;;;;;;5072991;28;20447;-64
2023/05/22 06:32:51;;;;;;;241.67;230.13;;;17.20;99.90;;;;;;5073280;28;20451;-65
2023/05/22 06:35:18;;;;;;;154.60;144.60;;;17.60;99.90;;;;;;5074111;28;20456;-65
2023/05/22 06:37:44;;;;;;;81.40;73.00;;;17.80;99.90;;;;;;5073335;28;20568;-64
2023/05/22 06:40:13;;;;;;;62.97;56.77;;;17.60;99.90;;;;;;5073396;28;20455;-63
2023/05/22 06:42:40;;;;;;;70.47;63.77;;;17.50;99.90;;;;;;5074298;28;20451;-63
2023/05/22 06:45:07;;;;;;;63.17;56.53;;;17.70;99.90;;;;;;5072397;28;20463;-63
2023/05/22 06:47:34;;;;;;;71.60;65.20;;;17.60;99.90;;;;;;5072570;28;20820;-63
2023/05/22 06:50:01;;;;;;;60.30;53.67;;;17.60;99.90;;;;;;5073334;28;20537;-64
2023/05/22 06:52:28;;;;;;;73.93;66.93;;;17.60;99.90;;;;;;5062344;28;20960;-63
2023/05/22 06:55:03;;;;;;;65.03;53.00;;;18.10;99.90;;;;;;5073520;28;20199;-63
2023/05/22 06:57:31;;;;;;;55.57;40.63;;;18.20;99.90;;;;;;5073905;28;20874;-63
2023/05/22 06:59:58;;;;;;;52.55;42.20;;;17.80;99.90;;;;;;5074247;28;20537;-63
2023/05/22 07:02:25;;;;;;;48.93;34.70;;;18.30;99.90;;;;;;5073769;28;20201;-63
2023/05/22 07:04:53;;;;;;;47.20;32.00;;;18.40;99.90;;;;;;5073340;28;20950;-63
2023/05/22 07:07:20;;;;;;;51.90;34.93;;;18.30;99.90;;;;;;5072822;28;20458;-63
2023/05/22 07:09:46;;;;;;;54.33;33.90;;;18.70;99.90;;;;;;5073871;28;20810;-63
2023/05/22 07:12:13;;;;;;;49.27;31.47;;;19.20;99.90;;;;;;5073514;28;20942;-64
2023/05/22 07:14:42;;;;;;;40.83;30.20;;;18.90;99.90;;;;;;5073713;28;20453;-63
2023/05/22 07:17:08;;;;;;;38.33;27.97;;;18.90;99.90;;;;;;5072381;28;20461;-63
2023/05/22 07:19:35;;;;;;;44.20;30.00;;;19.20;99.90;;;;;;5073712;28;20451;-63
2023/05/22 07:22:02;;;;;;;45.37;29.63;;;18.70;99.90;;;;;;5073413;28;20515;-63
2023/05/22 07:24:32;;;;;;;46.87;31.83;;;18.50;99.90;;;;;;5073950;28;20451;-63
2023/05/22 07:26:58;;;;;;;44.60;33.65;;;18.50;99.90;;;;;;5073615;28;20830;-63
2023/05/22 07:29:25;;;;;;;43.63;32.20;;;18.30;99.90;;;;;;5073780;28;20577;-63
2023/05/22 07:31:53;;;;;;;47.60;34.20;;;18.20;99.90;;;;;;5072827;28;20467;-63
2023/05/22 07:34:21;;;;;;;43.27;32.70;;;18.00;99.90;;;;;;5072962;28;20944;-63
2023/05/22 07:36:47;;;;;;;41.60;32.80;;;18.30;99.90;;;;;;5071582;28;20486;-63
2023/05/22 07:39:14;;;;;;;43.73;30.10;;;18.40;99.90;;;;;;5072645;28;20222;-63
2023/05/22 07:41:48;;;;;;;43.53;29.90;;;18.60;99.90;;;;;;5072708;28;20508;-63
2023/05/22 07:44:15;;;;;;;46.83;30.10;;;18.70;99.90;;;;;;5072155;28;20623;-63
2023/05/22 07:46:42;;;;;;;40.58;27.23;;;18.90;99.90;;;;;;5072638;28;20457;-63
2023/05/22 07:49:11;;;;;;;48.27;32.60;;;18.50;99.90;;;;;;5072925;28;20716;-63
2023/05/22 07:51:39;;;;;;;43.07;29.67;;;18.20;99.90;;;;;;5073041;28;20978;-63
2023/05/22 07:54:06;;;;;;;46.50;29.07;;;18.50;99.90;;;;;;5073308;28;20453;-63
2023/05/22 07:56:36;;;;;;;55.13;28.20;;;18.90;99.90;;;;;;5073160;28;20461;-63
2023/05/22 07:59:03;;;;;;;40.17;28.57;;;18.90;99.90;;;;;;5072435;28;20482;-63
2023/05/22 08:01:30;;;;;;;41.00;28.30;;;19.00;99.90;;;;;;5072664;28;20461;-63
2023/05/22 08:03:56;;;;;;;46.33;29.07;;;19.30;99.90;;;;;;5072825;28;20461;-63
2023/05/22 08:06:24;;;;;;;46.60;28.93;;;19.30;99.90;;;;;;5072971;28;20452;-63
2023/05/22 08:08:52;;;;;;;45.77;30.10;;;19.10;99.90;;;;;;5072833;28;20453;-62
2023/05/22 08:11:20;;;;;;;43.20;30.00;;;19.30;99.90;;;;;;5072737;28;20456;-63
2023/05/22 08:13:46;;;;;;;47.55;28.10;;;19.40;99.90;;;;;;5072776;28;20457;-63
2023/05/22 08:16:13;;;;;;;43.08;28.77;;;19.50;99.90;;;;;;5072424;28;20207;-63
2023/05/22 08:18:40;;;;;;;45.30;31.33;;;19.40;99.90;;;;;;5072151;28;20249;-63
2023/05/22 08:21:07;;;;;;;47.67;30.93;;;19.30;99.90;;;;;;5072521;28;20453;-63
2023/05/22 08:23:35;;;;;;;47.00;30.20;;;19.20;99.90;;;;;;5072652;28;20457;-63
2023/05/22 08:26:02;;;;;;;55.13;33.80;;;19.20;99.90;;;;;;5072572;28;20576;-64
2023/05/22 08:28:29;;;;;;;44.38;31.88;;;19.20;99.90;;;;;;5072483;28;20953;-63
2023/05/22 08:30:56;;;;;;;49.20;32.93;;;19.20;99.90;;;;;;5072598;28;20568;-64
2023/05/22 08:33:23;;;;;;;49.70;33.93;;;19.40;99.90;;;;;;5072330;28;20988;-63
2023/05/22 08:35:49;;;;;;;49.73;32.13;;;19.20;99.90;;;;;;5072535;28;20822;-63
2023/05/22 08:38:16;;;;;;;46.60;33.03;;;19.20;99.90;;;;;;5072408;28;20845;-63
2023/05/22 08:40:48;;;;;;;48.30;32.50;;;19.10;99.90;;;;;;5072332;28;20202;-63
2023/05/22 08:43:15;;;;;;;53.63;36.90;;;18.70;99.90;;;;;;5072385;28;20529;-63
2023/05/22 08:45:42;;;;;;;42.73;34.30;;;18.10;99.90;;;;;;5072045;28;20454;-63
2023/05/22 08:48:13;;;;;;;47.23;32.27;;;18.40;99.90;;;;;;5072355;28;20452;-63
2023/05/22 08:50:41;;;;;;;47.33;30.48;;;18.90;99.90;;;;;;5072255;28;20461;-63
2023/05/22 08:53:12;;;;;;;55.35;32.38;;;19.00;99.90;;;;;;5072563;28;20203;-64
2023/05/22 08:55:39;;;;;;;52.07;32.97;;;19.00;99.90;;;;;;5072320;28;20598;-63
2023/05/22 08:58:09;;;;;;;56.97;35.90;;;19.40;99.90;;;;;;5071897;28;20483;-63
2023/05/22 09:00:37;;;;;;;57.10;34.60;;;19.10;99.90;;;;;;5071820;28;20461;-63
2023/05/22 09:03:08;;;;;;;57.17;34.23;;;18.90;99.90;;;;;;5071407;28;20939;-63
2023/05/22 09:05:35;;;;;;;60.70;34.93;;;18.80;99.90;;;;;;5071424;28;20539;-63
2023/05/22 09:08:04;;;;;;;52.97;33.33;;;18.90;99.90;;;;;;5071738;28;20459;-64
2023/05/22 09:10:30;;;;;;;48.80;32.63;;;18.70;99.90;;;;;;5071960;28;20822;-63
2023/05/22 09:13:02;;;;;;;55.87;36.27;;;18.80;99.90;;;;;;5072164;28;20453;-63
2023/05/22 09:15:31;;;;;;;62.88;35.53;;;18.40;99.90;;;;;;5072102;28;20579;-63
2023/05/22 09:17:58;;;;;;;55.13;34.03;;;18.60;99.90;;;;;;5072074;28;20561;-63
2023/05/22 09:20:25;;;;;;;49.00;33.27;;;19.00;99.90;;;;;;5071728;28;20447;-63
2023/05/22 09:22:52;;;;;;;54.77;34.07;;;18.80;99.90;;;;;;5071183;28;20456;-63
2023/05/22 09:25:19;;;;;;;57.77;35.10;;;18.80;99.90;;;;;;5071651;28;20453;-63
2023/05/22 09:27:46;;;;;;;52.37;32.63;;;19.10;99.90;;;;;;5071926;28;20461;-63
2023/05/22 09:30:16;;;;;;;56.07;34.20;;;19.20;99.90;;;;;;5072040;28;20475;-63
2023/05/22 09:32:45;;;;;;;54.33;31.80;;;19.40;99.90;;;;;;5071614;28;20465;-63
2023/05/22 09:35:13;;;;;;;46.60;30.00;;;19.40;99.90;;;;;;5071755;28;20449;-63
2023/05/22 09:37:40;;;;;;;42.17;28.90;;;19.30;99.90;;;;;;5071662;28;20454;-63
2023/05/22 09:40:08;;;;;;;47.47;32.17;;;19.00;99.90;;;;;;5071440;28;20220;-63
2023/05/22 09:42:35;;;;;;;48.10;32.50;;;18.90;99.90;;;;;;5071649;28;20552;-63
2023/05/22 09:45:06;;;;;;;55.40;33.90;;;18.80;99.90;;;;;;5071750;28;20552;-63
2023/05/22 09:47:34;;;;;;;53.23;32.73;;;19.00;99.90;;;;;;5071765;28;20460;-63
2023/05/22 09:50:05;;;;;;;51.23;31.33;;;19.70;99.90;;;;;;5071880;28;20447;-63
2023/05/22 09:52:34;;;;;;;49.93;31.70;;;19.60;99.90;;;;;;5071444;28;20462;-63
2023/05/22 09:55:03;;;;;;;47.20;29.90;;;19.90;99.90;;;;;;5071742;28;20450;-63
2023/05/22 09:57:32;;;;;;;48.37;32.63;;;19.80;99.90;;;;;;5071769;28;20454;-63
2023/05/22 09:59:59;;;;;;;47.93;32.70;;;19.90;99.90;;;;;;5071565;28;20526;-63
2023/05/22 10:02:27;;;;;;;48.70;31.80;;;19.80;99.90;;;;;;5071286;28;20461;-63
2023/05/22 10:04:54;;;;;;;46.42;32.13;;;19.90;99.90;;;;;;5071746;28;20453;-63
2023/05/22 10:07:26;;;;;;;49.57;30.33;;;20.00;99.90;;;;;;5075205;28;20781;-63
2023/05/22 10:09:57;;;;;;;44.97;31.20;;;20.10;99.90;;;;;;5075125;28;20447;-63
2023/05/22 10:12:26;;;;;;;45.77;31.40;;;20.20;99.90;;;;;;5074851;28;20965;-64
2023/05/22 10:14:54;;;;;;;47.60;30.93;;;20.30;99.90;;;;;;5075055;28;20480;-63
2023/05/22 10:17:22;;;;;;;49.00;34.20;;;20.40;99.90;;;;;;5074845;28;20819;-63
2023/05/22 10:19:49;;;;;;;47.90;31.77;;;19.80;99.90;;;;;;5075224;28;20473;-63
2023/05/22 10:22:19;;;;;;;49.70;32.10;;;19.80;99.90;;;;;;5074794;28;20450;-63
2023/05/22 10:24:48;;;;;;;46.57;32.13;;;19.60;99.90;;;;;;5074954;28;20450;-63
2023/05/22 10:27:15;;;;;;;55.97;35.13;;;19.60;99.90;;;;;;5074551;28;20942;-63
2023/05/22 10:29:50;;;;;;;50.30;35.87;;;19.60;99.90;;;;;;5074782;28;20814;-63
2023/05/22 10:32:26;;;;;;;49.23;34.33;;;19.70;99.90;;;;;;5074574;28;20921;-63
2023/05/22 10:35:03;;;;;;;59.37;37.30;;;20.10;99.90;;;;;;5074841;28;20462;-63
2023/05/22 10:37:43;;;;;;;56.30;33.63;;;20.10;99.90;;;;;;5074837;28;20441;-63
2023/05/22 10:40:14;;;;;;;50.40;32.50;;;20.50;99.90;;;;;;5074290;28;20568;-64
2023/05/22 10:42:41;;;;;;;52.93;36.57;;;20.80;99.90;;;;;;5074375;28;20794;-64
2023/05/22 10:45:08;;;;;;;49.13;33.27;;;20.60;99.90;;;;;;5074453;28;20451;-63
2023/05/22 10:47:35;;;;;;;48.33;32.37;;;20.70;99.90;;;;;;5074446;28;20453;-64
2023/05/22 10:50:09;;;;;;;54.83;36.77;;;21.10;99.90;;;;;;5074620;28;20451;-63
2023/05/22 10:52:37;;;;;;;57.93;39.20;;;20.90;99.90;;;;;;5074433;28;20974;-63
2023/05/22 10:55:07;;;;;;;50.83;35.07;;;20.50;99.90;;;;;;5074395;28;20452;-64
2023/05/22 10:57:37;;;;;;;63.70;40.17;;;21.00;99.90;;;;;;5074820;28;20848;-63
2023/05/22 11:00:12;;;;;;;63.30;37.70;;;21.10;99.90;;;;;;5073042;28;20477;-64
2023/05/22 11:02:41;;;;;;;54.80;35.47;;;21.40;99.90;;;;;;5073104;28;20966;-63
2023/05/22 11:05:34;;;;;;;61.83;38.88;;;21.70;99.90;;;;;;5072421;28;20455;-63
2023/05/22 11:08:45;;;;;;;50.47;35.30;;;21.40;99.90;;;;;;5072319;28;20340;-63
2023/05/22 11:11:13;;;;;;;56.27;37.80;;;21.50;99.90;;;;;;5072991;28;20455;-63
2023/05/22 11:13:42;;;;;;;55.50;36.40;;;21.40;99.90;;;;;;5073007;28;20459;-63
2023/05/22 11:16:10;;;;;;;55.67;34.15;;;21.90;99.90;;;;;;5073466;28;20450;-63
2023/05/22 11:18:37;;;;;;;53.30;36.10;;;22.30;99.90;;;;;;5072831;28;20196;-63
2023/05/22 11:21:06;;;;;;;48.10;35.47;;;22.40;99.90;;;;;;5072791;28;20200;-63
2023/05/22 11:23:37;;;;;;;47.47;33.15;;;22.30;99.90;;;;;;5072905;28;20481;-63
2023/05/22 11:26:18;;;;;;;50.43;34.97;;;22.50;99.90;;;;;;5073211;28;20558;-63
2023/05/22 11:28:50;;;;;;;48.00;32.70;;;22.60;99.90;;;;;;5073462;28;20446;-63
2023/05/22 11:31:17;;;;;;;50.53;35.40;;;22.30;99.90;;;;;;5072852;28;21003;-63
2023/05/22 11:33:45;;;;;;;51.13;34.43;;;22.70;99.90;;;;;;5072442;28;20493;-63
2023/05/22 11:36:12;;;;;;;47.33;32.73;;;23.50;99.90;;;;;;5072450;28;20545;-63
2023/05/22 11:38:40;;;;;;;48.13;33.92;;;23.50;99.90;;;;;;5072990;28;20462;-63
2023/05/22 11:41:09;;;;;;;48.83;33.10;;;23.80;99.90;;;;;;5073398;28;20816;-63
2023/05/22 11:43:36;;;;;;;52.53;35.33;;;24.00;99.50;;;;;;5073516;28;20455;-63
2023/05/22 11:46:07;;;;;;;52.43;34.50;;;24.70;96.20;;;;;;5073339;28;20455;-65
2023/05/22 11:48:35;;;;;;;46.50;30.23;;;24.20;97.20;;;;;;5073174;28;20462;-64
2023/05/22 11:51:02;;;;;;;51.43;32.60;;;24.30;95.60;;;;;;5073001;28;20525;-65
2023/05/22 11:53:31;;;;;;;45.70;31.27;;;25.00;93.70;;;;;;5073082;28;20450;-65
2023/05/22 11:56:02;;;;;;;50.73;31.07;;;25.30;95.40;;;;;;5072369;28;20477;-65
2023/05/22 11:58:29;;;;;;;39.65;29.77;;;24.30;95.30;;;;;;5072976;28;20882;-65
2023/05/22 12:00:58;;;;;;;43.60;28.40;;;25.20;94.50;;;;;;5072226;28;20936;-64
2023/05/22 12:03:26;;;;;;;47.00;31.27;;;25.10;93.80;;;;;;5072727;28;20199;-65
2023/05/22 12:05:54;;;;;;;44.73;30.90;;;25.20;92.40;;;;;;5072120;28;20461;-65
2023/05/22 12:08:21;;;;;;;55.13;32.20;;;25.60;91.60;;;;;;5072431;28;20457;-65
2023/05/22 12:10:49;;;;;;;45.97;30.67;;;26.00;90.60;;;;;;5072346;28;20450;-65
2023/05/22 12:13:25;;;;;;;48.10;31.60;;;26.00;86.30;;;;;;5072551;28;20458;-65
2023/05/22 12:15:53;;;;;;;50.67;31.93;;;24.90;90.20;;;;;;5072161;28;20446;-64
2023/05/22 12:18:20;;;;;;;42.23;31.03;;;25.60;90.40;;;;;;5072670;28;20458;-64
2023/05/22 12:20:53;;;;;;;46.83;32.27;;;25.20;90.40;;;;;;5072318;28;20478;-64
2023/05/22 12:23:24;;;;;;;44.60;31.00;;;25.60;85.90;;;;;;5072406;28;20450;-64